sensor_id;sensor_type;location;lat;lon;timestamp;pressure;altitude;pressure_sealevel;temperature;humidity
12624;BME280;6377;42.836;23.998;2023-06-22T00:00:05;96048.09;;;20.20;100.00
12624;BME280;6377;42.836;23.998;2023-06-22T00:02:37;96056.97;;;20.39;100.00
12624;BME280;6377;42.836;23.998;2023-06-22T00:05:05;96058.97;;;20.55;100.00
12624;BME280;6377;42.836;23.998;2023-06-22T00:07:32;96061.44;;;20.56;100.00
12624;BME280;6377;42.836;23.998;2023-06-22T00:10:00;96060.25;;;20.52;100.00
12624;BME280;6377;42.836;23.998;2023-06-22T00:12:27;96056.63;;;20.47;100.00
12624;BME280;6377;42.836;23.998;2023-06-22T00:14:55;96061.16;;;20.46;100.00
12624;BME280;6377;42.836;23.998;2023-06-22T00:17:23;96035.88;;;20.24;100.00
12624;BME280;6377;42.836;23.998;2023-06-22T00:19:50;96062.94;;;20.23;100.00
12624;BME280;6377;42.836;23.998;2023-06-22T00:22:19;96055.47;;;20.13;100.00
12624;BME280;6377;42.836;23.998;2023-06-22T00:24:55;96057.50;;;20.29;100.00
12624;BME280;6377;42.836;23.998;2023-06-22T00:27:22;96052.88;;;20.36;100.00
12624;BME280;6377;42.836;23.998;2023-06-22T00:29:49;96068.28;;;20.41;100.00
12624;BME280;6377;42.836;23.998;2023-06-22T00:32:18;96058.25;;;20.36;100.00
12624;BME280;6377;42.836;23.998;2023-06-22T00:34:46;96064.69;;;20.17;100.00
12624;BME280;6377;42.836;23.998;2023-06-22T00:37:13;96059.47;;;19.92;100.00
12624;BME280;6377;42.836;23.998;2023-06-22T00:39:41;96044.59;;;19.60;100.00
12624;BME280;6377;42.836;23.998;2023-06-22T00:42:08;96051.59;;;19.61;100.00
12624;BME280;6377;42.836;23.998;2023-06-22T00:44:36;96059.63;;;19.79;100.00
12624;BME280;6377;42.836;23.998;2023-06-22T00:47:04;96054.09;;;19.92;100.00
12624;BME280;6377;42.836;23.998;2023-06-22T00:49:33;96049.31;;;19.94;100.00
12624;BME280;6377;42.836;23.998;2023-06-22T00:52:01;96041.13;;;19.89;100.00
12624;BME280;6377;42.836;23.998;2023-06-22T00:54:28;95986.63;;;19.41;100.00
12624;BME280;6377;42.836;23.998;2023-06-22T00:56:57;95995.22;;;19.61;100.00
12624;BME280;6377;42.836;23.998;2023-06-22T00:59:26;96042.00;;;20.01;100.00
12624;BME280;6377;42.836;23.998;2023-06-22T01:01:53;96044.75;;;19.95;100.00
12624;BME280;6377;42.836;23.998;2023-06-22T01:04:23;96043.59;;;20.02;100.00
12624;BME280;6377;42.836;23.998;2023-06-22T01:06:58;96036.66;;;20.13;100.00
12624;BME280;6377;42.836;23.998;2023-06-22T01:09:33;96039.09;;;20.14;100.00
12624;BME280;6377;42.836;23.998;2023-06-22T01:12:05;96014.41;;;19.94;100.00
12624;BME280;6377;42.836;23.998;2023-06-22T01:14:39;96042.31;;;20.05;100.00
12624;BME280;6377;42.836;23.998;2023-06-22T01:17:09;96044.66;;;20.01;100.00
12624;BME280;6377;42.836;23.998;2023-06-22T01:19:45;96048.88;;;20.09;100.00
12624;BME280;6377;42.836;23.998;2023-06-22T01:22:16;96031.38;;;20.06;100.00
12624;BME280;6377;42.836;23.998;2023-06-22T01:24:51;96044.88;;;20.00;100.00
12624;BME280;6377;42.836;23.998;2023-06-22T01:27:32;96046.44;;;19.78;100.00
12624;BME280;6377;42.836;23.998;2023-06-22T01:30:02;96029.09;;;19.62;100.00
12624;BME280;6377;42.836;23.998;2023-06-22T01:32:33;96049.03;;;19.84;100.00
12624;BME280;6377;42.836;23.998;2023-06-22T01:35:04;96039.22;;;19.60;100.00
12624;BME280;6377;42.836;23.998;2023-06-22T01:37:33;96054.31;;;19.73;100.00
12624;BME280;6377;42.836;23.998;2023-06-22T01:40:02;96055.53;;;19.77;100.00
12624;BME280;6377;42.836;23.998;2023-06-22T01:42:30;96048.56;;;19.87;100.00
12624;BME280;6377;42.836;23.998;2023-06-22T01:44:58;96050.50;;;19.98;100.00
12624;BME280;6377;42.836;23.998;2023-06-22T01:47:28;96047.19;;;19.96;100.00
12624;BME280;6377;42.836;23.998;2023-06-22T01:49:55;96057.22;;;19.89;100.00
12624;BME280;6377;42.836;23.998;2023-06-22T01:52:23;96046.88;;;19.75;100.00
12624;BME280;6377;42.836;23.998;2023-06-22T01:54:50;96050.03;;;19.53;100.00
12624;BME280;6377;42.836;23.998;2023-06-22T01:57:17;96045.44;;;19.42;100.00
12624;BME280;6377;42.836;23.998;2023-06-22T01:59:50;96049.19;;;19.35;100.00
12624;BME280;6377;42.836;23.998;2023-06-22T02:02:20;96057.22;;;19.35;100.00
12624;BME280;6377;42.836;23.998;2023-06-22T02:04:57;96048.09;;;19.42;100.00
12624;BME280;6377;42.836;23.998;2023-06-22T02:07:29;96020.47;;;19.42;100.00
12624;BME280;6377;42.836;23.998;2023-06-22T02:10:00;96066.50;;;19.75;100.00
12624;BME280;6377;42.836;23.998;2023-06-22T02:12:29;96071.41;;;19.78;100.00
12624;BME280;6377;42.836;23.998;2023-06-22T02:14:58;96069.97;;;19.76;100.00
12624;BME280;6377;42.836;23.998;2023-06-22T02:17:27;96076.34;;;19.81;100.00
12624;BME280;6377;42.836;23.998;2023-06-22T02:19:56;96066.63;;;19.80;100.00
12624;BME280;6377;42.836;23.998;2023-06-22T02:22:23;96073.34;;;19.89;100.00
12624;BME280;6377;42.836;23.998;2023-06-22T02:24:50;96070.19;;;19.92;100.00
12624;BME280;6377;42.836;23.998;2023-06-22T02:27:18;96096.97;;;19.99;100.00
12624;BME280;6377;42.836;23.998;2023-06-22T02:29:45;96062.91;;;19.81;100.00
12624;BME280;6377;42.836;23.998;2023-06-22T02:32:13;96070.22;;;19.74;100.00
12624;BME280;6377;42.836;23.998;2023-06-22T02:34:41;96073.88;;;19.62;100.00
12624;BME280;6377;42.836;23.998;2023-06-22T02:37:10;96067.47;;;19.44;100.00
12624;BME280;6377;42.836;23.998;2023-06-22T02:39:38;96066.44;;;19.45;100.00
12624;BME280;6377;42.836;23.998;2023-06-22T02:42:06;96060.75;;;19.53;100.00
12624;BME280;6377;42.836;23.998;2023-06-22T02:44:33;96053.03;;;19.45;100.00
12624;BME280;6377;42.836;23.998;2023-06-22T02:47:01;96046.88;;;19.38;100.00
12624;BME280;6377;42.836;23.998;2023-06-22T02:49:28;96056.38;;;19.41;100.00
12624;BME280;6377;42.836;23.998;2023-06-22T02:51:55;96057.78;;;19.43;100.00
12624;BME280;6377;42.836;23.998;2023-06-22T02:54:24;96048.97;;;19.36;100.00
12624;BME280;6377;42.836;23.998;2023-06-22T02:56:51;96012.91;;;19.14;100.00
12624;BME280;6377;42.836;23.998;2023-06-22T02:59:19;96052.34;;;19.50;100.00
12624;BME280;6377;42.836;23.998;2023-06-22T03:01:49;96049.44;;;19.51;100.00
12624;BME280;6377;42.836;23.998;2023-06-22T03:04:16;96049.72;;;19.62;100.00
12624;BME280;6377;42.836;23.998;2023-06-22T03:06:43;96049.19;;;19.71;100.00
12624;BME280;6377;42.836;23.998;2023-06-22T03:09:16;95939.41;;;19.03;100.00
12624;BME280;6377;42.836;23.998;2023-06-22T03:11:45;96061.63;;;19.84;100.00
12624;BME280;6377;42.836;23.998;2023-06-22T03:14:12;96062.59;;;19.89;100.00
12624;BME280;6377;42.836;23.998;2023-06-22T03:16:39;96042.34;;;19.75;100.00
12624;BME280;6377;42.836;23.998;2023-06-22T03:19:07;96087.88;;;19.82;100.00
12624;BME280;6377;42.836;23.998;2023-06-22T03:21:34;96082.75;;;19.62;100.00
12624;BME280;6377;42.836;23.998;2023-06-22T03:24:04;96087.16;;;19.75;100.00
12624;BME280;6377;42.836;23.998;2023-06-22T03:26:31;96098.19;;;19.67;100.00
12624;BME280;6377;42.836;23.998;2023-06-22T03:29:00;96087.22;;;19.50;100.00
12624;BME280;6377;42.836;23.998;2023-06-22T03:31:28;96098.78;;;19.69;100.00
12624;BME280;6377;42.836;23.998;2023-06-22T03:33:55;96096.59;;;19.77;100.00
12624;BME280;6377;42.836;23.998;2023-06-22T03:36:22;96096.16;;;19.62;100.00
12624;BME280;6377;42.836;23.998;2023-06-22T03:38:50;96101.59;;;19.55;100.00
12624;BME280;6377;42.836;23.998;2023-06-22T03:41:17;96095.41;;;19.55;100.00
12624;BME280;6377;42.836;23.998;2023-06-22T03:43:44;96109.72;;;19.67;100.00
12624;BME280;6377;42.836;23.998;2023-06-22T03:46:13;96106.84;;;19.69;100.00
12624;BME280;6377;42.836;23.998;2023-06-22T03:48:40;96097.38;;;19.66;100.00
12624;BME280;6377;42.836;23.998;2023-06-22T03:51:07;96100.13;;;19.78;100.00
12624;BME280;6377;42.836;23.998;2023-06-22T03:53:35;96100.94;;;19.78;100.00
12624;BME280;6377;42.836;23.998;2023-06-22T03:56:02;96096.91;;;19.69;100.00
12624;BME280;6377;42.836;23.998;2023-06-22T03:58:30;96094.44;;;19.68;100.00
12624;BME280;6377;42.836;23.998;2023-06-22T04:00:58;96094.91;;;19.65;100.00
12624;BME280;6377;42.836;23.998;2023-06-22T04:03:28;96094.38;;;19.56;100.00
12624;BME280;6377;42.836;23.998;2023-06-22T04:05:55;96084.09;;;19.53;100.00
12624;BME280;6377;42.836;23.998;2023-06-22T04:08:22;96079.03;;;19.45;100.00
12624;BME280;6377;42.836;23.998;2023-06-22T04:10:49;96075.47;;;19.26;100.00
12624;BME280;6377;42.836;23.998;2023-06-22T04:13:16;96068.13;;;19.22;100.00
12624;BME280;6377;42.836;23.998;2023-06-22T04:15:43;96073.09;;;19.18;100.00
12624;BME280;6377;42.836;23.998;2023-06-22T04:18:11;96074.66;;;19.08;100.00
12624;BME280;6377;42.836;23.998;2023-06-22T04:20:40;96067.88;;;19.23;100.00
12624;BME280;6377;42.836;23.998;2023-06-22T04:23:07;96070.50;;;19.30;100.00
12624;BME280;6377;42.836;23.998;2023-06-22T04:25:34;96079.31;;;19.37;100.00
12624;BME280;6377;42.836;23.998;2023-06-22T04:28:02;96079.84;;;19.45;100.00
12624;BME280;6377;42.836;23.998;2023-06-22T04:30:30;96075.00;;;19.54;100.00
12624;BME280;6377;42.836;23.998;2023-06-22T04:32:57;96075.72;;;19.61;100.00
12624;BME280;6377;42.836;23.998;2023-06-22T04:35:26;96043.72;;;19.48;100.00
12624;BME280;6377;42.836;23.998;2023-06-22T04:37:57;96061.22;;;19.50;100.00
12624;BME280;6377;42.836;23.998;2023-06-22T04:40:25;96083.78;;;19.61;100.00
12624;BME280;6377;42.836;23.998;2023-06-22T04:42:52;96079.94;;;19.57;100.00
12624;BME280;6377;42.836;23.998;2023-06-22T04:45:20;96080.75;;;19.58;100.00
12624;BME280;6377;42.836;23.998;2023-06-22T04:47:47;96082.31;;;19.65;100.00
12624;BME280;6377;42.836;23.998;2023-06-22T04:50:15;96087.59;;;19.72;100.00
12624;BME280;6377;42.836;23.998;2023-06-22T04:52:43;96085.03;;;19.77;100.00
12624;BME280;6377;42.836;23.998;2023-06-22T04:55:12;96067.09;;;19.77;100.00
12624;BME280;6377;42.836;23.998;2023-06-22T04:57:44;96070.53;;;19.84;100.00
12624;BME280;6377;42.836;23.998;2023-06-22T05:00:15;96077.34;;;19.98;100.00
12624;BME280;6377;42.836;23.998;2023-06-22T05:02:43;96074.09;;;20.08;100.00
12624;BME280;6377;42.836;23.998;2023-06-22T05:05:11;96077.53;;;20.15;100.00
12624;BME280;6377;42.836;23.998;2023-06-22T05:07:41;96085.94;;;20.19;100.00
12624;BME280;6377;42.836;23.998;2023-06-22T05:10:10;96087.56;;;20.20;100.00
12624;BME280;6377;42.836;23.998;2023-06-22T05:12:39;96097.66;;;20.24;100.00
12624;BME280;6377;42.836;23.998;2023-06-22T05:15:08;96089.16;;;20.27;100.00
12624;BME280;6377;42.836;23.998;2023-06-22T05:17:36;96089.91;;;20.34;100.00
12624;BME280;6377;42.836;23.998;2023-06-22T05:20:09;96077.84;;;20.25;100.00
12624;BME280;6377;42.836;23.998;2023-06-22T05:22:37;96096.34;;;20.45;100.00
12624;BME280;6377;42.836;23.998;2023-06-22T05:25:05;96074.38;;;20.18;100.00
12624;BME280;6377;42.836;23.998;2023-06-22T05:27:33;96086.50;;;20.39;100.00
12624;BME280;6377;42.836;23.998;2023-06-22T05:30:07;96091.91;;;20.50;100.00
12624;BME280;6377;42.836;23.998;2023-06-22T05:32:35;96093.09;;;20.54;100.00
12624;BME280;6377;42.836;23.998;2023-06-22T05:35:03;96094.97;;;20.54;100.00
12624;BME280;6377;42.836;23.998;2023-06-22T05:37:30;96101.66;;;20.63;100.00
12624;BME280;6377;42.836;23.998;2023-06-22T05:39:57;96057.69;;;20.46;100.00
12624;BME280;6377;42.836;23.998;2023-06-22T05:42:25;96103.44;;;20.69;100.00
12624;BME280;6377;42.836;23.998;2023-06-22T05:44:52;96102.25;;;20.77;100.00
12624;BME280;6377;42.836;23.998;2023-06-22T05:47:21;96097.34;;;20.85;100.00
12624;BME280;6377;42.836;23.998;2023-06-22T05:49:48;96091.06;;;20.91;100.00
12624;BME280;6377;42.836;23.998;2023-06-22T05:52:16;96094.09;;;20.95;100.00
12624;BME280;6377;42.836;23.998;2023-06-22T05:54:43;96095.16;;;21.05;100.00
12624;BME280;6377;42.836;23.998;2023-06-22T05:57:10;96084.66;;;21.15;100.00
12624;BME280;6377;42.836;23.998;2023-06-22T05:59:37;96083.50;;;21.23;100.00
12624;BME280;6377;42.836;23.998;2023-06-22T06:02:05;96082.09;;;21.32;100.00
12624;BME280;6377;42.836;23.998;2023-06-22T06:04:34;96079.28;;;21.39;100.00
12624;BME280;6377;42.836;23.998;2023-06-22T06:07:01;96081.00;;;21.56;100.00
12624;BME280;6377;42.836;23.998;2023-06-22T06:09:28;96079.59;;;21.65;100.00
12624;BME280;6377;42.836;23.998;2023-06-22T06:11:55;96033.50;;;21.50;100.00
12624;BME280;6377;42.836;23.998;2023-06-22T06:14:23;96072.88;;;21.79;100.00
12624;BME280;6377;42.836;23.998;2023-06-22T06:16:50;96070.53;;;21.83;100.00
12624;BME280;6377;42.836;23.998;2023-06-22T06:19:17;96094.03;;;21.99;100.00
12624;BME280;6377;42.836;23.998;2023-06-22T06:21:46;96092.59;;;22.08;100.00
12624;BME280;6377;42.836;23.998;2023-06-22T06:24:13;96068.00;;;22.05;100.00
12624;BME280;6377;42.836;23.998;2023-06-22T06:26:40;96049.34;;;22.15;100.00
12624;BME280;6377;42.836;23.998;2023-06-22T06:29:07;96081.44;;;22.45;100.00
12624;BME280;6377;42.836;23.998;2023-06-22T06:31:35;96077.38;;;22.59;100.00
12624;BME280;6377;42.836;23.998;2023-06-22T06:34:02;96074.75;;;22.64;100.00
12624;BME280;6377;42.836;23.998;2023-06-22T06:36:29;96076.50;;;22.70;100.00
12624;BME280;6377;42.836;23.998;2023-06-22T06:38:58;96074.47;;;22.77;100.00
12624;BME280;6377;42.836;23.998;2023-06-22T06:41:25;96072.53;;;22.89;100.00
12624;BME280;6377;42.836;23.998;2023-06-22T06:43:52;96062.88;;;22.93;100.00
12624;BME280;6377;42.836;23.998;2023-06-22T06:46:20;96046.34;;;23.06;100.00
12624;BME280;6377;42.836;23.998;2023-06-22T06:48:47;96077.66;;;23.24;96.08
12624;BME280;6377;42.836;23.998;2023-06-22T06:51:14;96073.78;;;23.36;94.16
12624;BME280;6377;42.836;23.998;2023-06-22T06:53:41;96065.03;;;23.46;95.40
12624;BME280;6377;42.836;23.998;2023-06-22T06:56:10;96072.53;;;23.61;96.02
12624;BME280;6377;42.836;23.998;2023-06-22T06:58:40;96066.88;;;23.84;95.08
12624;BME280;6377;42.836;23.998;2023-06-22T07:01:07;96069.19;;;23.97;92.73
12624;BME280;6377;42.836;23.998;2023-06-22T07:03:34;96063.00;;;24.18;94.40
12624;BME280;6377;42.836;23.998;2023-06-22T07:06:02;96060.88;;;24.25;90.29
12624;BME280;6377;42.836;23.998;2023-06-22T07:08:29;96061.59;;;24.42;91.64
12624;BME280;6377;42.836;23.998;2023-06-22T07:10:56;96054.38;;;24.48;87.28
12624;BME280;6377;42.836;23.998;2023-06-22T07:13:25;96065.31;;;24.63;78.48
12624;BME280;6377;42.836;23.998;2023-06-22T07:15:52;96056.03;;;24.81;76.75
12624;BME280;6377;42.836;23.998;2023-06-22T07:18:19;96059.16;;;24.99;82.38
12624;BME280;6377;42.836;23.998;2023-06-22T07:20:46;96056.28;;;25.11;77.21
12624;BME280;6377;42.836;23.998;2023-06-22T07:23:14;96056.59;;;25.20;73.08
12624;BME280;6377;42.836;23.998;2023-06-22T07:25:41;96064.84;;;25.35;72.20
12624;BME280;6377;42.836;23.998;2023-06-22T07:28:09;96058.16;;;25.47;69.19
12624;BME280;6377;42.836;23.998;2023-06-22T07:30:38;96029.84;;;25.28;68.39
12624;BME280;6377;42.836;23.998;2023-06-22T07:33:05;96065.06;;;25.65;64.49
12624;BME280;6377;42.836;23.998;2023-06-22T07:35:34;96066.19;;;25.74;64.65
12624;BME280;6377;42.836;23.998;2023-06-22T07:38:01;96067.63;;;25.92;65.51
12624;BME280;6377;42.836;23.998;2023-06-22T07:40:29;96071.69;;;25.99;63.27
12624;BME280;6377;42.836;23.998;2023-06-22T07:42:56;96068.75;;;26.11;60.79
12624;BME280;6377;42.836;23.998;2023-06-22T07:45:23;96067.75;;;26.22;59.60
12624;BME280;6377;42.836;23.998;2023-06-22T07:47:52;96063.38;;;26.16;61.09
12624;BME280;6377;42.836;23.998;2023-06-22T07:50:19;96060.44;;;26.28;61.45
12624;BME280;6377;42.836;23.998;2023-06-22T07:52:46;96044.44;;;26.36;62.86
12624;BME280;6377;42.836;23.998;2023-06-22T07:55:14;96040.66;;;26.37;59.52
12624;BME280;6377;42.836;23.998;2023-06-22T07:57:41;96056.16;;;26.62;58.91
12624;BME280;6377;42.836;23.998;2023-06-22T08:00:10;96043.94;;;26.49;58.76
12624;BME280;6377;42.836;23.998;2023-06-22T08:02:41;96047.19;;;26.71;60.57
12624;BME280;6377;42.836;23.998;2023-06-22T08:05:10;96049.13;;;26.86;60.69
12624;BME280;6377;42.836;23.998;2023-06-22T08:07:37;96055.94;;;26.89;59.79
12624;BME280;6377;42.836;23.998;2023-06-22T08:10:05;96059.72;;;26.98;59.57
12624;BME280;6377;42.836;23.998;2023-06-22T08:12:33;96058.66;;;26.94;58.87
12624;BME280;6377;42.836;23.998;2023-06-22T08:15:00;96053.75;;;27.01;58.94
12624;BME280;6377;42.836;23.998;2023-06-22T08:17:27;96041.53;;;26.98;59.55
12624;BME280;6377;42.836;23.998;2023-06-22T08:19:54;96051.28;;;27.24;60.70
12624;BME280;6377;42.836;23.998;2023-06-22T08:22:23;96061.34;;;27.14;59.97
12624;BME280;6377;42.836;23.998;2023-06-22T08:24:51;96008.72;;;26.85;59.52
12624;BME280;6377;42.836;23.998;2023-06-22T08:27:18;96051.56;;;27.23;60.05
12624;BME280;6377;42.836;23.998;2023-06-22T08:29:47;96061.59;;;27.38;59.28
12624;BME280;6377;42.836;23.998;2023-06-22T08:32:15;96029.31;;;27.16;58.64
12624;BME280;6377;42.836;23.998;2023-06-22T08:34:43;96057.00;;;27.28;59.77
12624;BME280;6377;42.836;23.998;2023-06-22T08:37:10;96048.56;;;27.24;59.03
12624;BME280;6377;42.836;23.998;2023-06-22T08:39:39;96034.72;;;27.31;59.06
12624;BME280;6377;42.836;23.998;2023-06-22T08:42:07;96040.41;;;27.50;57.65
12624;BME280;6377;42.836;23.998;2023-06-22T08:44:34;96043.66;;;27.62;54.94
12624;BME280;6377;42.836;23.998;2023-06-22T08:47:01;96049.59;;;27.74;54.66
12624;BME280;6377;42.836;23.998;2023-06-22T08:49:29;96056.13;;;27.73;52.11
12624;BME280;6377;42.836;23.998;2023-06-22T08:51:56;96053.59;;;27.92;50.85
12624;BME280;6377;42.836;23.998;2023-06-22T08:54:23;96054.66;;;28.06;50.05
12624;BME280;6377;42.836;23.998;2023-06-22T08:56:52;96048.41;;;28.05;48.66
12624;BME280;6377;42.836;23.998;2023-06-22T08:59:19;96057.53;;;28.24;50.19
12624;BME280;6377;42.836;23.998;2023-06-22T09:01:46;96049.63;;;28.28;49.52
12624;BME280;6377;42.836;23.998;2023-06-22T09:04:14;96017.63;;;28.10;50.34
12624;BME280;6377;42.836;23.998;2023-06-22T09:06:42;96038.44;;;28.34;50.06
12624;BME280;6377;42.836;23.998;2023-06-22T09:09:12;96048.81;;;28.32;48.83
12624;BME280;6377;42.836;23.998;2023-06-22T09:11:40;96035.59;;;28.01;50.25
12624;BME280;6377;42.836;23.998;2023-06-22T09:14:09;96048.81;;;28.27;50.31
12624;BME280;6377;42.836;23.998;2023-06-22T09:16:36;96038.00;;;28.12;49.12
12624;BME280;6377;42.836;23.998;2023-06-22T09:19:04;96045.50;;;28.41;49.85
12624;BME280;6377;42.836;23.998;2023-06-22T09:21:31;96043.81;;;28.50;49.94
12624;BME280;6377;42.836;23.998;2023-06-22T09:23:58;96048.13;;;28.56;50.25
12624;BME280;6377;42.836;23.998;2023-06-22T09:26:26;96040.19;;;28.64;49.48
12624;BME280;6377;42.836;23.998;2023-06-22T09:28:53;96049.03;;;28.80;48.95
12624;BME280;6377;42.836;23.998;2023-06-22T09:31:21;96035.72;;;28.78;49.78
12624;BME280;6377;42.836;23.998;2023-06-22T09:33:51;96043.16;;;29.02;48.40
12624;BME280;6377;42.836;23.998;2023-06-22T09:36:20;96048.59;;;29.02;48.13
12624;BME280;6377;42.836;23.998;2023-06-22T09:38:47;96047.03;;;29.29;49.46
12624;BME280;6377;42.836;23.998;2023-06-22T09:41:14;96042.28;;;29.40;47.91
12624;BME280;6377;42.836;23.998;2023-06-22T09:43:42;96047.00;;;29.58;47.69
12624;BME280;6377;42.836;23.998;2023-06-22T09:46:10;96052.81;;;29.75;47.96
12624;BME280;6377;42.836;23.998;2023-06-22T09:48:39;96049.72;;;29.87;46.23
12624;BME280;6377;42.836;23.998;2023-06-22T09:51:06;96039.47;;;29.97;45.51
12624;BME280;6377;42.836;23.998;2023-06-22T09:53:33;96036.63;;;30.08;45.27
12624;BME280;6377;42.836;23.998;2023-06-22T09:56:01;96039.44;;;30.21;45.70
12624;BME280;6377;42.836;23.998;2023-06-22T09:58:28;96038.34;;;30.22;45.61
12624;BME280;6377;42.836;23.998;2023-06-22T10:00:55;96048.38;;;30.08;45.39
12624;BME280;6377;42.836;23.998;2023-06-22T10:03:22;96043.38;;;29.91;46.47
12624;BME280;6377;42.836;23.998;2023-06-22T10:05:51;96042.34;;;29.87;46.47
12624;BME280;6377;42.836;23.998;2023-06-22T10:08:18;96035.88;;;29.78;46.96
12624;BME280;6377;42.836;23.998;2023-06-22T10:10:46;96026.50;;;29.89;46.83
12624;BME280;6377;42.836;23.998;2023-06-22T10:13:13;96038.13;;;30.00;46.76
12624;BME280;6377;42.836;23.998;2023-06-22T10:15:41;96030.16;;;30.22;45.40
12624;BME280;6377;42.836;23.998;2023-06-22T10:18:08;96028.50;;;30.26;45.21
12624;BME280;6377;42.836;23.998;2023-06-22T10:20:35;96034.25;;;30.62;43.94
12624;BME280;6377;42.836;23.998;2023-06-22T10:23:04;96007.44;;;30.83;43.50
12624;BME280;6377;42.836;23.998;2023-06-22T10:25:31;96010.53;;;30.95;43.17
12624;BME280;6377;42.836;23.998;2023-06-22T10:27:58;96021.72;;;31.12;43.24
12624;BME280;6377;42.836;23.998;2023-06-22T10:30:26;96026.00;;;31.18;43.10
12624;BME280;6377;42.836;23.998;2023-06-22T10:32:54;96025.25;;;30.99;43.47
12624;BME280;6377;42.836;23.998;2023-06-22T10:35:21;96017.63;;;31.28;43.51
12624;BME280;6377;42.836;23.998;2023-06-22T10:37:48;96024.91;;;31.33;43.32
12624;BME280;6377;42.836;23.998;2023-06-22T10:40:18;96019.94;;;31.67;42.24
12624;BME280;6377;42.836;23.998;2023-06-22T10:42:48;96024.69;;;31.61;42.30
12624;BME280;6377;42.836;23.998;2023-06-22T10:45:16;96027.84;;;31.55;43.20
12624;BME280;6377;42.836;23.998;2023-06-22T10:47:43;96020.63;;;31.59;43.04
12624;BME280;6377;42.836;23.998;2023-06-22T10:50:11;96027.13;;;31.63;43.67
12624;BME280;6377;42.836;23.998;2023-06-22T10:52:38;95993.59;;;31.71;42.62
12624;BME280;6377;42.836;23.998;2023-06-22T10:55:06;96011.13;;;32.11;42.53
12624;BME280;6377;42.836;23.998;2023-06-22T10:57:35;96020.78;;;32.44;41.93
12624;BME280;6377;42.836;23.998;2023-06-22T11:00:03;96014.78;;;32.56;41.46
12624;BME280;6377;42.836;23.998;2023-06-22T11:02:32;96025.19;;;32.67;41.27
12624;BME280;6377;42.836;23.998;2023-06-22T11:04:59;96019.91;;;32.71;41.06
12624;BME280;6377;42.836;23.998;2023-06-22T11:07:26;96004.13;;;31.78;41.57
12624;BME280;6377;42.836;23.998;2023-06-22T11:09:54;96002.41;;;31.95;42.39
12624;BME280;6377;42.836;23.998;2023-06-22T11:12:21;96024.38;;;31.63;41.58
12624;BME280;6377;42.836;23.998;2023-06-22T11:14:50;96018.94;;;31.31;42.86
12624;BME280;6377;42.836;23.998;2023-06-22T11:17:18;96027.03;;;31.22;43.32
12624;BME280;6377;42.836;23.998;2023-06-22T11:19:45;96002.41;;;30.90;43.87
12624;BME280;6377;42.836;23.998;2023-06-22T11:22:13;96037.28;;;30.79;44.39
12624;BME280;6377;42.836;23.998;2023-06-22T11:27:12;96029.59;;;30.81;44.49
12624;BME280;6377;42.836;23.998;2023-06-22T11:29:39;96030.81;;;30.94;44.53
12624;BME280;6377;42.836;23.998;2023-06-22T11:32:08;96028.59;;;31.09;43.78
12624;BME280;6377;42.836;23.998;2023-06-22T11:34:35;96004.34;;;30.89;43.68
12624;BME280;6377;42.836;23.998;2023-06-22T11:37:02;96025.28;;;31.13;43.98
12624;BME280;6377;42.836;23.998;2023-06-22T11:39:29;96028.44;;;30.69;45.22
12624;BME280;6377;42.836;23.998;2023-06-22T11:41:57;96038.22;;;30.32;45.35
12624;BME280;6377;42.836;23.998;2023-06-22T11:44:24;96036.53;;;30.18;46.58
12624;BME280;6377;42.836;23.998;2023-06-22T11:46:51;96033.78;;;30.18;46.44
12624;BME280;6377;42.836;23.998;2023-06-22T11:49:20;96046.78;;;30.26;45.66
12624;BME280;6377;42.836;23.998;2023-06-22T11:51:47;96037.09;;;30.33;46.25
12624;BME280;6377;42.836;23.998;2023-06-22T11:54:14;96039.44;;;30.21;47.27
12624;BME280;6377;42.836;23.998;2023-06-22T11:56:41;96038.19;;;30.14;47.68
12624;BME280;6377;42.836;23.998;2023-06-22T11:59:08;96040.34;;;30.17;47.27
12624;BME280;6377;42.836;23.998;2023-06-22T12:01:35;96041.16;;;30.36;47.85
12624;BME280;6377;42.836;23.998;2023-06-22T12:04:03;96036.91;;;30.48;46.98
12624;BME280;6377;42.836;23.998;2023-06-22T12:06:32;96039.44;;;30.82;46.60
12624;BME280;6377;42.836;23.998;2023-06-22T12:09:02;96028.31;;;31.11;46.28
12624;BME280;6377;42.836;23.998;2023-06-22T12:11:30;96035.22;;;30.71;47.00
12624;BME280;6377;42.836;23.998;2023-06-22T12:13:57;96039.78;;;30.76;47.10
12624;BME280;6377;42.836;23.998;2023-06-22T12:16:27;96031.47;;;30.67;48.00
12624;BME280;6377;42.836;23.998;2023-06-22T12:18:54;96025.03;;;30.95;47.97
12624;BME280;6377;42.836;23.998;2023-06-22T12:21:21;96021.81;;;31.07;47.28
12624;BME280;6377;42.836;23.998;2023-06-22T12:23:50;96026.41;;;31.12;47.61
12624;BME280;6377;42.836;23.998;2023-06-22T12:26:17;96025.63;;;31.38;46.92
12624;BME280;6377;42.836;23.998;2023-06-22T12:28:44;96015.16;;;31.59;47.40
12624;BME280;6377;42.836;23.998;2023-06-22T12:31:11;96015.69;;;31.75;46.06
12624;BME280;6377;42.836;23.998;2023-06-22T12:33:38;96022.34;;;31.82;45.62
12624;BME280;6377;42.836;23.998;2023-06-22T12:36:05;96006.66;;;32.15;44.86
12624;BME280;6377;42.836;23.998;2023-06-22T12:38:32;96003.63;;;32.66;44.40
12624;BME280;6377;42.836;23.998;2023-06-22T12:41:01;96001.19;;;32.51;44.38
12624;BME280;6377;42.836;23.998;2023-06-22T12:43:28;96005.84;;;32.14;45.18
12624;BME280;6377;42.836;23.998;2023-06-22T12:45:55;95997.63;;;32.01;45.37
12624;BME280;6377;42.836;23.998;2023-06-22T12:48:22;95997.03;;;32.04;45.87
12624;BME280;6377;42.836;23.998;2023-06-22T12:50:50;95994.72;;;31.70;45.75
12624;BME280;6377;42.836;23.998;2023-06-22T12:53:17;95996.44;;;31.52;46.37
12624;BME280;6377;42.836;23.998;2023-06-22T12:55:45;95997.09;;;31.44;46.54
12624;BME280;6377;42.836;23.998;2023-06-22T12:58:13;95998.78;;;31.27;47.24
12624;BME280;6377;42.836;23.998;2023-06-22T13:00:40;96004.84;;;31.24;47.70